createdAt,value
2022-07-29T00:00:20.476Z,5.63
2022-07-29T00:02:48.413Z,3.88
2022-07-29T00:05:16.264Z,7.70
2022-07-29T00:07:44.085Z,4.25
2022-07-29T00:10:11.871Z,3.40
2022-07-29T00:12:40.989Z,2.72
2022-07-29T00:15:09.911Z,3.35
2022-07-29T00:17:37.634Z,2.80
2022-07-29T00:20:06.644Z,9.15
2022-07-29T00:22:34.499Z,3.67
2022-07-29T00:25:02.221Z,3.58
2022-07-29T00:27:29.908Z,7.03
2022-07-29T00:29:58.987Z,2.80
2022-07-29T00:32:26.689Z,2.78
2022-07-29T00:35:11.597Z,3.22
2022-07-29T00:37:39.356Z,5.18
2022-07-29T00:40:08.387Z,2.88
2022-07-29T00:42:44.059Z,3.22
2022-07-29T00:45:14.382Z,3.25
2022-07-29T00:47:42.600Z,3.22
2022-07-29T00:50:12.817Z,5.18
2022-07-29T00:52:42.420Z,3.72
2022-07-29T00:55:12.667Z,5.30
2022-07-29T00:57:41.982Z,3.97
2022-07-29T01:00:12.397Z,6.20
2022-07-29T01:02:41.513Z,2.95
2022-07-29T01:05:09.754Z,4.85
2022-07-29T01:07:39.371Z,2.20
2022-07-29T01:10:09.976Z,4.97
2022-07-29T01:12:39.855Z,2.63
2022-07-29T01:15:10.159Z,3.80
2022-07-29T01:17:52.454Z,4.07
2022-07-29T01:20:31.470Z,5.30
2022-07-29T01:23:39.622Z,2.50
2022-07-29T01:26:25.229Z,2.83
2022-07-29T01:29:08.407Z,4.65
2022-07-29T01:31:58.522Z,2.65
2022-07-29T01:34:33.048Z,4.78
2022-07-29T01:37:09.269Z,2.65
2022-07-29T01:39:39.627Z,2.42
2022-07-29T01:42:14.743Z,3.45
2022-07-29T01:44:50.466Z,2.95
2022-07-29T01:47:22.604Z,2.47
2022-07-29T01:52:27.814Z,7.03
2022-07-29T01:54:58.693Z,2.90
2022-07-29T01:57:29.226Z,2.90
2022-07-29T02:00:00.439Z,1.83
2022-07-29T02:02:29.947Z,4.17
2022-07-29T02:04:59.296Z,3.45
2022-07-29T02:07:31.575Z,2.05
2022-07-29T02:10:01.430Z,3.38
2022-07-29T02:12:31.337Z,4.20
2022-07-29T02:15:02.965Z,2.33
2022-07-29T02:17:35.271Z,3.35
2022-07-29T02:20:08.895Z,3.15
2022-07-29T02:22:40.012Z,4.18
2022-07-29T02:25:14.082Z,4.70
2022-07-29T02:27:43.641Z,3.78
2022-07-29T02:30:14.623Z,2.45
2022-07-29T02:32:44.766Z,4.55
2022-07-29T02:35:16.385Z,2.20
2022-07-29T02:37:46.804Z,2.60
2022-07-29T02:40:16.820Z,3.25
2022-07-29T02:42:47.419Z,2.45
2022-07-29T02:45:16.658Z,4.60
2022-07-29T02:47:49.823Z,2.50
2022-07-29T02:50:22.252Z,2.83
2022-07-29T02:52:56.567Z,2.42
2022-07-29T02:55:31.834Z,3.95
2022-07-29T02:58:03.452Z,2.25
2022-07-29T03:00:37.736Z,2.15
2022-07-29T03:03:08.919Z,6.07
2022-07-29T03:05:37.163Z,2.50
2022-07-29T03:08:10.434Z,1.90
2022-07-29T03:10:39.506Z,4.72
2022-07-29T03:13:08.361Z,4.43
2022-07-29T03:15:39.047Z,3.03
2022-07-29T03:18:09.144Z,2.05
2022-07-29T03:20:36.936Z,3.33
2022-07-29T03:23:05.339Z,5.47
2022-07-29T03:25:33.411Z,1.58
2022-07-29T03:28:01.552Z,1.92
2022-07-29T03:30:31.596Z,3.35
2022-07-29T03:33:01.921Z,2.55
2022-07-29T03:35:32.459Z,2.40
2022-07-29T03:38:00.298Z,2.85
2022-07-29T03:40:33.555Z,2.10
2022-07-29T03:43:03.283Z,3.25
2022-07-29T03:45:32.785Z,3.00
2022-07-29T03:48:06.381Z,3.03
2022-07-29T03:50:35.667Z,2.47
2022-07-29T03:53:04.325Z,3.35
2022-07-29T03:55:39.764Z,3.67
2022-07-29T03:58:09.629Z,2.05
2022-07-29T04:00:38.579Z,3.05
2022-07-29T04:03:10.698Z,5.40
2022-07-29T04:05:41.169Z,4.25
2022-07-29T04:08:08.932Z,2.80
2022-07-29T04:10:37.004Z,3.72
2022-07-29T04:13:05.216Z,3.20
2022-07-29T04:15:32.955Z,3.60
2022-07-29T04:18:01.174Z,2.60
2022-07-29T04:20:30.227Z,2.13
2022-07-29T04:22:58.034Z,2.55
2022-07-29T04:25:25.772Z,3.53
2022-07-29T04:28:02.249Z,4.38
2022-07-29T04:30:30.625Z,3.97
2022-07-29T04:32:58.394Z,3.78
2022-07-29T04:35:26.330Z,2.95
2022-07-29T04:37:55.378Z,3.72
2022-07-29T04:40:23.511Z,2.72
2022-07-29T04:42:51.203Z,1.70
2022-07-29T04:45:22.512Z,4.95
2022-07-29T04:47:50.647Z,2.42
2022-07-29T04:50:18.631Z,5.25
2022-07-29T04:52:46.542Z,3.33
2022-07-29T04:55:15.672Z,3.92
2022-07-29T04:57:43.423Z,3.58
2022-07-29T05:00:12.151Z,3.60
2022-07-29T05:02:40.232Z,2.20
2022-07-29T05:05:08.585Z,4.55
2022-07-29T05:07:36.402Z,5.15
2022-07-29T05:10:04.869Z,3.45
2022-07-29T05:12:34.020Z,2.97
2022-07-29T05:15:02.023Z,1.90
2022-07-29T05:17:29.877Z,1.98
2022-07-29T05:19:57.600Z,4.40
2022-07-29T05:22:25.416Z,3.28
2022-07-29T05:24:53.194Z,4.32
2022-07-29T05:27:20.898Z,3.03
2022-07-29T05:29:50.014Z,2.90
2022-07-29T05:32:17.815Z,3.47
2022-07-29T05:34:50.749Z,3.00
2022-07-29T05:37:20.125Z,6.38
2022-07-29T05:39:50.677Z,5.57
2022-07-29T05:42:25.430Z,5.13
2022-07-29T05:44:55.994Z,2.45
2022-07-29T05:47:23.989Z,3.55
2022-07-29T05:49:52.293Z,2.92
2022-07-29T05:52:20.359Z,2.78
2022-07-29T05:54:48.379Z,3.70
2022-07-29T05:57:19.710Z,3.70
2022-07-29T05:59:47.504Z,4.43
2022-07-29T06:02:17.274Z,3.78
2022-07-29T06:04:45.747Z,4.80
2022-07-29T06:07:13.524Z,4.95
2022-07-29T06:09:41.258Z,2.97
2022-07-29T06:12:09.302Z,2.53
2022-07-29T06:14:38.871Z,6.68
2022-07-29T06:17:07.318Z,2.97
2022-07-29T06:19:37.635Z,3.08
2022-07-29T06:22:05.952Z,1.90
2022-07-29T06:24:33.757Z,2.78
2022-07-29T06:27:01.468Z,3.53
2022-07-29T06:29:29.146Z,6.05
2022-07-29T06:31:56.924Z,6.85
2022-07-29T06:34:24.699Z,2.70
2022-07-29T06:36:54.646Z,2.30
2022-07-29T06:39:22.805Z,5.22
2022-07-29T06:41:51.532Z,4.50
2022-07-29T06:44:20.380Z,5.88
2022-07-29T06:46:50.136Z,3.55
2022-07-29T06:49:18.178Z,6.68
2022-07-29T06:51:46.040Z,6.40
2022-07-29T06:54:15.711Z,3.33
2022-07-29T06:56:44.159Z,2.75
2022-07-29T06:59:13.462Z,6.05
2022-07-29T07:01:44.764Z,2.85
2022-07-29T07:04:14.727Z,5.03
2022-07-29T07:06:42.892Z,3.92
2022-07-29T07:09:10.648Z,11.65
2022-07-29T07:11:39.734Z,4.88
2022-07-29T07:14:07.516Z,8.27
2022-07-29T07:16:35.300Z,4.90
2022-07-29T07:19:03.146Z,5.65
2022-07-29T07:21:31.325Z,5.95
2022-07-29T07:24:00.088Z,9.15
2022-07-29T07:26:28.441Z,5.53
2022-07-29T07:28:57.833Z,12.45
2022-07-29T07:31:25.639Z,10.85
2022-07-29T07:33:54.261Z,8.68
2022-07-29T07:36:22.078Z,9.50
2022-07-29T07:38:50.074Z,5.78
2022-07-29T07:41:17.854Z,11.45
2022-07-29T07:43:45.603Z,7.07
2022-07-29T07:46:14.920Z,6.35
2022-07-29T07:48:42.845Z,5.20
2022-07-29T07:51:10.727Z,4.53
2022-07-29T07:53:38.493Z,4.50
2022-07-29T07:56:11.094Z,6.30
2022-07-29T07:58:39.996Z,6.13
2022-07-29T08:01:08.098Z,7.20
2022-07-29T08:03:37.534Z,8.55
2022-07-29T08:06:05.810Z,4.63
2022-07-29T08:08:33.588Z,8.68
2022-07-29T08:11:08.307Z,7.10
2022-07-29T08:13:38.560Z,8.52
2022-07-29T08:16:13.208Z,7.47
2022-07-29T08:18:43.785Z,5.95
2022-07-29T08:21:15.057Z,9.23
2022-07-29T08:23:54.383Z,7.82
2022-07-29T08:26:27.085Z,7.03
2022-07-29T08:28:54.890Z,8.60
2022-07-29T08:31:22.758Z,8.90
2022-07-29T08:33:51.987Z,8.63
2022-07-29T08:36:21.797Z,5.88
2022-07-29T08:38:50.439Z,7.40
2022-07-29T08:41:19.946Z,7.35
2022-07-29T08:43:47.865Z,8.05
2022-07-29T08:46:15.692Z,9.30
2022-07-29T08:48:43.843Z,6.57
2022-07-29T08:51:16.098Z,21.63
2022-07-29T08:53:45.894Z,6.15
2022-07-29T08:56:15.563Z,7.00
2022-07-29T08:58:44.210Z,7.93
2022-07-29T09:01:20.002Z,7.32
2022-07-29T09:03:48.759Z,5.15
2022-07-29T09:06:20.029Z,9.07
2022-07-29T09:08:48.169Z,5.78
2022-07-29T09:11:16.235Z,6.80
2022-07-29T09:13:44.003Z,4.78
2022-07-29T09:16:11.871Z,6.55
2022-07-29T09:18:41.480Z,3.55
2022-07-29T09:21:30.535Z,4.97
2022-07-29T09:24:05.164Z,5.15
2022-07-29T09:26:34.611Z,5.07
2022-07-29T09:29:09.357Z,6.55
2022-07-29T09:31:39.151Z,4.55
2022-07-29T09:34:09.223Z,5.88
2022-07-29T09:36:44.923Z,3.92
2022-07-29T09:39:15.245Z,6.50
2022-07-29T09:41:50.106Z,6.97
2022-07-29T09:44:18.533Z,5.68
2022-07-29T09:46:58.294Z,8.73
2022-07-29T09:49:27.305Z,5.32
2022-07-29T09:52:02.867Z,8.90
2022-07-29T09:54:37.467Z,6.15
2022-07-29T09:57:06.550Z,6.55
2022-07-29T09:59:35.440Z,4.72
2022-07-29T10:02:03.592Z,5.47
2022-07-29T10:04:41.746Z,3.55
2022-07-29T10:07:09.917Z,6.70
2022-07-29T10:09:39.205Z,7.82
2022-07-29T10:12:10.008Z,5.82
2022-07-29T10:14:38.118Z,4.87
2022-07-29T10:17:07.424Z,3.50
2022-07-29T10:19:36.762Z,4.40
2022-07-29T10:22:07.016Z,4.65
2022-07-29T10:24:35.325Z,3.30
2022-07-29T10:27:06.403Z,4.97
2022-07-29T10:29:35.105Z,5.03
2022-07-29T10:32:22.580Z,3.33
2022-07-29T10:35:09.181Z,3.92
2022-07-29T10:37:55.190Z,3.80
2022-07-29T10:40:54.962Z,8.45
2022-07-29T10:43:30.509Z,3.42
2022-07-29T10:46:02.124Z,5.22
2022-07-29T10:48:30.207Z,3.78
2022-07-29T10:51:01.128Z,6.57
2022-07-29T10:53:50.605Z,5.88
2022-07-29T10:56:29.388Z,3.42
2022-07-29T10:59:27.118Z,4.97
2022-07-29T11:02:35.513Z,4.72
2022-07-29T11:05:02.229Z,1.67
2022-07-29T11:07:45.932Z,2.83
2022-07-29T11:10:27.061Z,5.68
2022-07-29T11:12:59.492Z,7.35
2022-07-29T11:15:31.612Z,3.78
2022-07-29T11:18:08.059Z,4.22
2022-07-29T11:20:45.526Z,3.50
2022-07-29T11:23:34.095Z,5.22
2022-07-29T11:26:18.536Z,4.57
2022-07-29T11:28:54.128Z,8.38
2022-07-29T11:31:37.375Z,3.38
2022-07-29T11:34:20.921Z,5.53
2022-07-29T11:37:28.334Z,5.60
2022-07-29T11:40:26.679Z,5.75
2022-07-29T11:42:55.043Z,7.63
2022-07-29T11:45:41.452Z,3.75
2022-07-29T11:48:28.934Z,2.45
2022-07-29T11:51:01.018Z,5.45
2022-07-29T11:53:32.618Z,7.75
2022-07-29T11:58:50.488Z,5.32
2022-07-29T12:01:19.465Z,3.35
2022-07-29T12:03:48.575Z,5.68
2022-07-29T12:06:18.017Z,8.50
2022-07-29T12:08:47.428Z,2.90
2022-07-29T12:11:20.542Z,5.22
2022-07-29T12:13:49.602Z,3.97
2022-07-29T12:16:25.423Z,3.85
2022-07-29T12:18:59.827Z,3.45
2022-07-29T12:21:29.057Z,6.15
2022-07-29T12:24:05.813Z,7.20
2022-07-29T12:26:37.522Z,3.67
2022-07-29T12:29:11.418Z,4.78
2022-07-29T12:31:45.612Z,3.88
2022-07-29T12:34:17.544Z,7.18
2022-07-29T12:39:13.464Z,3.25
2022-07-29T12:41:41.314Z,5.05
2022-07-29T12:44:09.245Z,4.22
2022-07-29T12:46:37.362Z,5.18
2022-07-29T12:49:07.652Z,8.45
2022-07-29T12:51:39.987Z,6.10
2022-07-29T12:54:11.260Z,5.57
2022-07-29T12:56:44.129Z,5.90
2022-07-29T12:59:18.597Z,5.25
2022-07-29T13:01:47.984Z,6.07
2022-07-29T13:04:26.879Z,6.80
2022-07-29T13:07:04.583Z,3.40
2022-07-29T13:09:40.768Z,7.30
2022-07-29T13:12:10.921Z,3.90
2022-07-29T13:14:40.280Z,4.10
2022-07-29T13:17:10.000Z,5.70
2022-07-29T13:19:41.320Z,4.88
2022-07-29T13:22:11.321Z,3.40
2022-07-29T13:24:50.314Z,7.95
2022-07-29T13:27:18.329Z,12.27
2022-07-29T13:29:46.119Z,11.02
2022-07-29T13:32:14.783Z,13.40
2022-07-29T13:34:42.713Z,16.73
2022-07-29T13:37:12.084Z,11.65
2022-07-29T13:39:40.733Z,14.48
2022-07-29T13:42:11.019Z,23.40
2022-07-29T13:44:39.085Z,15.80
2022-07-29T13:47:07.112Z,21.10
2022-07-29T13:49:34.877Z,20.52
2022-07-29T13:52:02.678Z,19.90
2022-07-29T13:54:31.756Z,20.67
2022-07-29T13:56:59.483Z,16.52
2022-07-29T13:59:27.197Z,16.80
2022-07-29T14:01:55.157Z,16.17
2022-07-29T14:04:24.220Z,12.15
2022-07-29T14:06:52.125Z,15.93
2022-07-29T14:09:19.898Z,15.07
2022-07-29T14:11:50.642Z,16.60
2022-07-29T14:14:18.666Z,16.38
2022-07-29T14:16:46.557Z,13.68
2022-07-29T14:19:18.372Z,13.45
2022-07-29T14:21:46.361Z,16.52
2022-07-29T14:24:18.014Z,14.32
2022-07-29T14:26:52.154Z,13.70
2022-07-29T14:29:20.022Z,20.92
2022-07-29T14:31:47.882Z,13.15
2022-07-29T14:34:16.408Z,16.02
2022-07-29T14:36:44.208Z,16.95
2022-07-29T14:39:12.698Z,13.52
2022-07-29T14:41:40.461Z,10.77
2022-07-29T14:44:09.593Z,14.77
2022-07-29T14:46:37.540Z,14.35
2022-07-29T14:49:06.563Z,17.25
2022-07-29T14:51:37.340Z,16.10
2022-07-29T14:54:05.424Z,14.65
2022-07-29T14:56:37.549Z,11.88
2022-07-29T14:59:05.755Z,20.30
2022-07-29T15:01:37.642Z,15.65
2022-07-29T15:04:06.038Z,15.15
2022-07-29T15:06:33.795Z,13.80
2022-07-29T15:09:01.595Z,18.45
2022-07-29T15:11:29.342Z,14.10
2022-07-29T15:13:57.077Z,12.85
2022-07-29T15:16:25.004Z,11.88
2022-07-29T15:18:54.135Z,13.93
2022-07-29T15:21:21.814Z,11.65
2022-07-29T15:23:49.923Z,16.67
2022-07-29T15:26:18.784Z,13.48
2022-07-29T15:28:46.705Z,10.60
2022-07-29T15:31:14.560Z,11.18
2022-07-29T15:33:42.372Z,11.93
2022-07-29T15:36:35.809Z,11.55
2022-07-29T15:39:00.372Z,11.10
2022-07-29T15:41:28.115Z,13.88
2022-07-29T15:43:55.863Z,10.07
2022-07-29T15:46:40.927Z,14.23
2022-07-29T15:49:09.149Z,10.55
2022-07-29T15:51:38.306Z,9.52
2022-07-29T15:54:06.698Z,9.93
2022-07-29T15:56:34.499Z,9.50
2022-07-29T15:59:02.252Z,11.13
2022-07-29T16:01:30.062Z,14.80
2022-07-29T16:03:59.131Z,11.27
2022-07-29T16:06:26.933Z,11.15
2022-07-29T16:08:56.792Z,9.48
2022-07-29T16:11:24.676Z,10.02
2022-07-29T16:13:52.515Z,13.00
2022-07-29T16:16:20.693Z,10.20
2022-07-29T16:18:48.839Z,9.25
2022-07-29T16:21:16.834Z,9.02
2022-07-29T16:23:45.321Z,7.60
2022-07-29T16:26:14.614Z,9.00
2022-07-29T16:28:42.560Z,9.52
2022-07-29T16:31:10.880Z,9.05
2022-07-29T16:33:53.645Z,7.43
2022-07-29T16:36:24.244Z,11.52
2022-07-29T16:38:52.199Z,7.82
2022-07-29T16:41:21.328Z,8.02
2022-07-29T16:43:49.083Z,7.45
2022-07-29T16:46:18.456Z,8.57
2022-07-29T16:48:46.886Z,6.68
2022-07-29T16:51:14.754Z,6.55
2022-07-29T16:53:42.528Z,5.20
2022-07-29T16:56:12.937Z,8.57
2022-07-29T16:58:44.062Z,6.85
2022-07-29T17:01:12.259Z,9.10
2022-07-29T17:04:00.877Z,7.32
2022-07-29T17:06:29.462Z,6.95
2022-07-29T17:08:57.547Z,3.10
2022-07-29T17:11:51.949Z,3.95
2022-07-29T17:14:14.771Z,3.20
2022-07-29T17:16:42.546Z,5.90
2022-07-29T17:19:19.382Z,4.05
2022-07-29T17:21:49.391Z,3.35
2022-07-29T17:24:17.233Z,3.42
2022-07-29T17:26:45.023Z,3.83
2022-07-29T17:29:15.867Z,3.30
2022-07-29T17:31:43.971Z,3.03
2022-07-29T17:34:12.465Z,5.40
2022-07-29T17:36:40.267Z,3.85
2022-07-29T17:39:11.215Z,3.25
2022-07-29T17:41:40.745Z,3.53
2022-07-29T17:44:09.354Z,4.47
2022-07-29T17:46:38.593Z,8.93
2022-07-29T17:49:06.407Z,4.20
2022-07-29T17:51:34.289Z,3.38
2022-07-29T17:54:02.024Z,3.90
2022-07-29T17:56:29.766Z,3.22
2022-07-29T17:59:01.067Z,2.88
2022-07-29T18:01:29.115Z,3.30
2022-07-29T18:04:00.177Z,2.95
2022-07-29T18:06:28.288Z,5.63
2022-07-29T18:08:56.104Z,5.32
2022-07-29T18:11:24.531Z,3.47
2022-07-29T18:13:52.543Z,2.55
2022-07-29T18:16:20.684Z,4.88
2022-07-29T18:18:48.558Z,3.38
2022-07-29T18:21:17.822Z,2.85
2022-07-29T18:24:05.991Z,3.83
2022-07-29T18:26:33.883Z,3.60
2022-07-29T18:29:01.673Z,3.80
2022-07-29T18:31:29.451Z,7.68
2022-07-29T18:33:59.973Z,7.82
2022-07-29T18:36:29.456Z,6.22
2022-07-29T18:38:57.202Z,5.43
2022-07-29T18:41:24.974Z,2.42
2022-07-29T18:43:52.719Z,3.63
2022-07-29T18:46:22.443Z,3.92
2022-07-29T18:48:50.815Z,3.92
2022-07-29T18:51:18.587Z,3.78
2022-07-29T18:53:47.713Z,5.43
2022-07-29T18:56:15.443Z,6.93
2022-07-29T18:58:43.185Z,4.80
2022-07-29T19:01:16.122Z,4.00
2022-07-29T19:03:44.545Z,6.70
2022-07-29T19:06:12.280Z,5.38
2022-07-29T19:08:39.996Z,7.28
2022-07-29T19:11:09.141Z,4.35
2022-07-29T19:13:37.332Z,4.78
2022-07-29T19:16:05.479Z,14.82
2022-07-29T19:18:33.297Z,7.85
2022-07-29T19:21:01.086Z,3.78
2022-07-29T19:23:28.864Z,8.52
2022-07-29T19:25:57.213Z,4.40
2022-07-29T19:28:27.243Z,5.72
2022-07-29T19:30:55.021Z,4.70
2022-07-29T19:33:22.921Z,4.30
2022-07-29T19:35:54.812Z,5.45
2022-07-29T19:38:23.575Z,4.38
2022-07-29T19:40:51.339Z,6.07
2022-07-29T19:43:51.798Z,5.50
2022-07-29T19:46:08.271Z,5.95
2022-07-29T19:48:36.835Z,4.78
2022-07-29T19:51:04.675Z,5.50
2022-07-29T19:53:32.907Z,6.53
2022-07-29T19:56:00.746Z,5.40
2022-07-29T19:58:28.513Z,14.85
2022-07-29T20:00:56.306Z,6.15
2022-07-29T20:03:25.463Z,8.55
2022-07-29T20:05:53.226Z,7.30
2022-07-29T20:08:21.138Z,4.80
2022-07-29T20:10:48.828Z,6.47
2022-07-29T20:13:16.602Z,9.98
2022-07-29T20:15:44.432Z,9.52
2022-07-29T20:18:12.227Z,6.57
2022-07-29T20:20:41.339Z,7.40
2022-07-29T20:23:09.159Z,7.65
2022-07-29T20:25:36.904Z,5.93
2022-07-29T20:28:05.170Z,7.82
2022-07-29T20:30:32.987Z,6.43
2022-07-29T20:33:00.734Z,9.13
2022-07-29T20:35:28.624Z,8.77
2022-07-29T20:37:57.740Z,8.88
2022-07-29T20:40:25.942Z,6.97
2022-07-29T20:42:53.823Z,12.05
2022-07-29T20:45:21.604Z,10.32
2022-07-29T20:47:50.623Z,10.45
2022-07-29T20:50:18.948Z,9.38
2022-07-29T20:52:46.667Z,7.82
2022-07-29T20:55:15.905Z,8.02
2022-07-29T20:57:43.971Z,9.25
2022-07-29T21:00:12.648Z,9.48
2022-07-29T21:02:40.422Z,9.50
2022-07-29T21:05:08.849Z,18.42
2022-07-29T21:07:36.586Z,11.63
2022-07-29T21:10:04.908Z,6.57
2022-07-29T21:12:34.031Z,9.32
2022-07-29T21:15:05.652Z,16.17
2022-07-29T21:17:36.007Z,20.98
2022-07-29T21:20:05.422Z,11.25
2022-07-29T21:22:33.234Z,7.38
2022-07-29T21:25:01.644Z,10.02
2022-07-29T21:27:46.961Z,8.45
2022-07-29T21:30:16.231Z,7.47
2022-07-29T21:32:44.065Z,6.07
2022-07-29T21:35:23.363Z,6.57
2022-07-29T21:38:00.353Z,7.15
2022-07-29T21:40:28.128Z,6.18
2022-07-29T21:42:55.843Z,7.18
2022-07-29T21:45:25.099Z,5.97
2022-07-29T21:47:52.862Z,7.57
2022-07-29T21:50:20.746Z,6.45
2022-07-29T21:52:48.564Z,7.75
2022-07-29T21:55:16.316Z,6.32
2022-07-29T21:57:47.036Z,7.63
2022-07-29T22:00:15.819Z,10.13
2022-07-29T22:02:45.521Z,11.07
2022-07-29T22:05:14.021Z,10.85
2022-07-29T22:07:55.676Z,7.05
2022-07-29T22:10:25.700Z,8.70
2022-07-29T22:12:54.548Z,7.25
2022-07-29T22:15:22.332Z,5.85
2022-07-29T22:17:51.712Z,9.75
2022-07-29T22:20:19.685Z,5.22
2022-07-29T22:22:48.154Z,10.38
2022-07-29T22:25:16.364Z,5.00
2022-07-29T22:27:45.052Z,5.65
2022-07-29T22:30:13.284Z,6.63
2022-07-29T22:32:41.108Z,5.63
2022-07-29T22:35:10.680Z,5.30
2022-07-29T22:37:39.078Z,9.27
2022-07-29T22:40:08.339Z,7.68
2022-07-29T22:42:36.365Z,7.10
2022-07-29T22:45:10.263Z,9.05
2022-07-29T22:47:46.255Z,6.07
2022-07-29T22:50:18.091Z,7.80
2022-07-29T22:52:46.888Z,8.00
2022-07-29T22:55:15.265Z,5.75
2022-07-29T22:57:43.093Z,6.38
2022-07-29T23:00:12.375Z,5.72
2022-07-29T23:02:41.211Z,13.43
2022-07-29T23:05:10.274Z,5.07
2022-07-29T23:07:39.558Z,6.90
2022-07-29T23:10:07.835Z,7.40
2022-07-29T23:12:35.775Z,5.53
2022-07-29T23:15:04.477Z,6.30
2022-07-29T23:17:36.548Z,5.47
2022-07-29T23:20:07.307Z,6.18
2022-07-29T23:22:35.131Z,6.70
2022-07-29T23:25:06.174Z,7.68
2022-07-29T23:27:33.980Z,8.18
2022-07-29T23:30:01.733Z,7.88
2022-07-29T23:32:29.454Z,8.10
2022-07-29T23:34:57.187Z,8.90
2022-07-29T23:37:24.887Z,6.05
2022-07-29T23:39:54.698Z,9.30
2022-07-29T23:42:23.884Z,5.93
2022-07-29T23:44:51.766Z,4.30
2022-07-29T23:47:19.565Z,4.75
2022-07-29T23:49:49.738Z,5.45
2022-07-29T23:52:17.584Z,5.65
2022-07-29T23:54:45.308Z,6.85
2022-07-29T23:57:13.107Z,6.13
2022-07-29T23:59:42.197Z,8.88
